createdAt,value
2018-09-12T00:01:06.740Z,1016.54
2018-09-12T00:02:16.871Z,1016.55
2018-09-12T00:03:25.783Z,1016.6
2018-09-12T00:04:35.234Z,1016.59
2018-09-12T00:05:44.415Z,1016.58
2018-09-12T00:06:53.585Z,1016.59
2018-09-12T00:08:03.034Z,1016.57
2018-09-12T00:09:12.456Z,1016.57
2018-09-12T00:10:22.171Z,1016.59
2018-09-12T00:11:31.831Z,1016.57
2018-09-12T00:12:41.785Z,1016.56
2018-09-12T00:13:50.989Z,1016.57
2018-09-12T00:15:00.431Z,1016.54
2018-09-12T00:16:09.613Z,1016.54
2018-09-12T00:17:19.108Z,1016.47
2018-09-12T00:18:28.554Z,1016.45
2018-09-12T00:19:38.003Z,1016.46
2018-09-12T00:20:47.436Z,1016.44
2018-09-12T00:21:57.190Z,1016.45
2018-09-12T00:23:07.167Z,1016.42
2018-09-12T00:24:16.916Z,1016.42
2018-09-12T00:25:26.084Z,1016.42
2018-09-12T00:26:35.784Z,1016.41
2018-09-12T00:27:45.223Z,1016.4
2018-09-12T00:28:54.958Z,1016.36
2018-09-12T00:30:04.379Z,1016.38
2018-09-12T00:31:13.814Z,1016.32
2018-09-12T00:32:23.491Z,1016.32
2018-09-12T00:33:32.724Z,1016.29
2018-09-12T00:34:41.632Z,1016.33
2018-09-12T00:35:51.062Z,1016.3
2018-09-12T00:37:00.497Z,1016.33
2018-09-12T00:38:09.994Z,1016.32
2018-09-12T00:39:19.160Z,1016.29
2018-09-12T00:40:28.348Z,1016.34
2018-09-12T00:41:37.503Z,1016.32
2018-09-12T00:42:47.454Z,1016.36
2018-09-12T00:43:57.151Z,1016.34
2018-09-12T00:45:06.321Z,1016.34
2018-09-12T00:46:16.256Z,1016.29
2018-09-12T00:47:25.187Z,1016.3
2018-09-12T00:48:34.369Z,1016.33
2018-09-12T00:49:43.558Z,1016.29
2018-09-12T00:50:53.262Z,1016.26
2018-09-12T00:52:02.970Z,1016.25
2018-09-12T00:53:12.400Z,1016.23
2018-09-12T00:54:21.587Z,1016.23
2018-09-12T00:55:31.057Z,1016.22
2018-09-12T00:56:40.492Z,1016.21
2018-09-12T00:57:49.928Z,1016.17
2018-09-12T00:58:59.081Z,1016.18
2018-09-12T01:00:08.253Z,1016.15
2018-09-12T01:01:17.713Z,1016.15
2018-09-12T01:02:27.170Z,1016.13
2018-09-12T01:03:37.111Z,1016.14
2018-09-12T01:04:46.278Z,1016.12
2018-09-12T01:05:56.244Z,1016.13
2018-09-12T01:07:05.934Z,1016.11
2018-09-12T01:08:15.414Z,1016.08
2018-09-12T01:09:25.094Z,1016.1
2018-09-12T01:10:34.788Z,1016.06
2018-09-12T01:11:44.491Z,1016.03
2018-09-12T01:12:53.687Z,1016.06
2018-09-12T01:14:02.862Z,1016.05
2018-09-12T01:15:12.555Z,1016.1
2018-09-12T01:16:22.523Z,1016.09
2018-09-12T01:17:32.472Z,1016.04
2018-09-12T01:18:41.923Z,1016.08
2018-09-12T01:19:51.612Z,1016.04
2018-09-12T01:21:01.047Z,1016.02
2018-09-12T01:22:10.455Z,1016.01
2018-09-12T01:23:19.703Z,1016.03
2018-09-12T01:24:28.612Z,1016.03
2018-09-12T01:25:38.564Z,1016.02
2018-09-12T01:26:48.271Z,1016
2018-09-12T01:27:57.433Z,1016.01
2018-09-12T01:29:07.136Z,1016.03
2018-09-12T01:30:16.572Z,1016.01
2018-09-12T01:31:26.006Z,1015.98
2018-09-12T01:32:34.911Z,1016.02
2018-09-12T01:33:44.324Z,1016
2018-09-12T01:34:54.014Z,1016.03
2018-09-12T01:36:03.992Z,1016
2018-09-12T01:37:13.665Z,1016
2018-09-12T01:38:23.099Z,1016.07
2018-09-12T01:39:32.524Z,1016.02
2018-09-12T01:40:42.488Z,1016.05
2018-09-12T01:41:51.914Z,1016.05
2018-09-12T01:43:01.084Z,1016.02
2018-09-12T01:44:10.841Z,1015.97
2018-09-12T01:45:20.793Z,1015.99
2018-09-12T01:46:30.218Z,1015.92
2018-09-12T01:47:39.942Z,1015.95
2018-09-12T01:48:49.638Z,1015.95
2018-09-12T01:49:58.801Z,1015.9
2018-09-12T01:51:08.752Z,1015.87
2018-09-12T01:52:18.466Z,1015.86
2018-09-12T01:53:28.240Z,1015.85
2018-09-12T01:54:38.212Z,1015.82
2018-09-12T01:55:47.407Z,1015.82
2018-09-12T01:56:57.352Z,1015.81
2018-09-12T01:58:06.772Z,1015.77
2018-09-12T01:59:16.207Z,1015.79
2018-09-12T02:00:25.636Z,1015.79
2018-09-12T02:01:35.082Z,1015.8
2018-09-12T02:02:44.513Z,1015.83
2018-09-12T02:03:53.946Z,1015.85
2018-09-12T02:05:03.675Z,1015.86
2018-09-12T02:06:13.610Z,1015.84
2018-09-12T02:07:22.770Z,1015.81
2018-09-12T02:08:32.451Z,1015.82
2018-09-12T02:09:42.130Z,1015.83
2018-09-12T02:10:51.827Z,1015.84
2018-09-12T02:12:01.006Z,1015.86
2018-09-12T02:13:10.691Z,1015.84
2018-09-12T02:14:20.119Z,1015.85
2018-09-12T02:15:29.802Z,1015.82
2018-09-12T02:16:38.737Z,1015.84
2018-09-12T02:17:47.924Z,1015.84
2018-09-12T02:18:57.372Z,1015.89
2018-09-12T02:20:06.532Z,1015.87
2018-09-12T02:21:16.482Z,1015.86
2018-09-12T02:22:26.208Z,1015.84
2018-09-12T02:23:35.656Z,1015.82
2018-09-12T02:24:44.827Z,1015.81
2018-09-12T02:25:54.817Z,1015.82
2018-09-12T02:27:04.020Z,1015.8
2018-09-12T02:28:13.485Z,1015.79
2018-09-12T02:29:22.948Z,1015.77
2018-09-12T02:30:32.132Z,1015.76
2018-09-12T02:31:42.085Z,1015.78
2018-09-12T02:32:51.783Z,1015.77
2018-09-12T02:34:01.756Z,1015.77
2018-09-12T02:35:11.457Z,1015.77
2018-09-12T02:36:21.151Z,1015.8
2018-09-12T02:37:30.592Z,1015.73
2018-09-12T02:38:40.040Z,1015.74
2018-09-12T02:39:49.511Z,1015.77
2018-09-12T02:40:59.219Z,1015.8
2018-09-12T02:42:08.399Z,1015.76
2018-09-12T02:43:17.827Z,1015.76
2018-09-12T02:44:26.759Z,1015.69
2018-09-12T02:45:36.729Z,1015.73
2018-09-12T02:46:46.416Z,1015.71
2018-09-12T02:47:55.578Z,1015.73
2018-09-12T02:49:05.012Z,1015.7
2018-09-12T02:50:14.718Z,1015.7
2018-09-12T02:51:23.621Z,1015.66
2018-09-12T02:52:33.363Z,1015.72
2018-09-12T02:53:42.543Z,1015.68
2018-09-12T02:54:51.452Z,1015.68
2018-09-12T02:56:01.152Z,1015.69
2018-09-12T02:57:10.555Z,1015.66
2018-09-12T02:58:20.259Z,1015.61
2018-09-12T02:59:30.204Z,1015.61
2018-09-12T03:00:39.401Z,1015.61
2018-09-12T03:01:48.835Z,1015.59
2018-09-12T03:02:58.544Z,1015.59
2018-09-12T03:04:08.252Z,1015.62
2018-09-12T03:05:17.715Z,1015.54
2018-09-12T03:06:27.705Z,1015.54
2018-09-12T03:07:37.158Z,1015.54
2018-09-12T03:08:46.711Z,1015.52
2018-09-12T03:09:56.675Z,1015.55
2018-09-12T03:11:06.357Z,1015.54
2018-09-12T03:12:16.061Z,1015.57
2018-09-12T03:13:25.249Z,1015.57
2018-09-12T03:14:34.467Z,1015.54
2018-09-12T03:15:43.893Z,1015.51
2018-09-12T03:16:53.331Z,1015.52
2018-09-12T03:18:02.839Z,1015.49
2018-09-12T03:19:12.791Z,1015.49
2018-09-12T03:20:21.967Z,1015.48
2018-09-12T03:21:32.272Z,1015.45
2018-09-12T03:22:41.175Z,1015.48
2018-09-12T03:23:50.379Z,1015.45
2018-09-12T03:24:59.805Z,1015.47
2018-09-12T03:26:08.981Z,1015.45
2018-09-12T03:27:18.708Z,1015.44
2018-09-12T03:28:27.902Z,1015.4
2018-09-12T03:29:37.342Z,1015.41
2018-09-12T03:30:46.788Z,1015.41
2018-09-12T03:31:56.484Z,1015.38
2018-09-12T03:33:06.454Z,1015.43
2018-09-12T03:34:47.987Z,1015.45
2018-09-12T03:35:57.182Z,1015.43
2018-09-12T03:37:06.621Z,1015.42
2018-09-12T03:38:15.522Z,1015.44
2018-09-12T03:39:24.510Z,1015.42
2018-09-12T03:40:34.462Z,1015.44
2018-09-12T03:41:43.677Z,1015.44
2018-09-12T03:42:53.131Z,1015.42
2018-09-12T03:44:02.046Z,1015.45
2018-09-12T03:45:10.959Z,1015.44
2018-09-12T03:46:20.394Z,1015.46
2018-09-12T03:47:29.809Z,1015.44
2018-09-12T03:48:39.781Z,1015.5
2018-09-12T03:49:49.237Z,1015.46
2018-09-12T03:50:58.704Z,1015.5
2018-09-12T03:52:08.685Z,1015.51
2018-09-12T03:53:18.649Z,1015.5
2018-09-12T03:54:28.085Z,1015.54
2018-09-12T03:55:37.772Z,1015.54
2018-09-12T03:56:47.727Z,1015.51
2018-09-12T03:57:57.171Z,1015.49
2018-09-12T03:59:06.601Z,1015.47
2018-09-12T04:00:16.029Z,1015.49
2018-09-12T04:01:25.228Z,1015.51
2018-09-12T04:02:34.907Z,1015.49
2018-09-12T04:03:44.494Z,1015.52
2018-09-12T04:04:53.680Z,1015.51
2018-09-12T04:06:02.878Z,1015.52
2018-09-12T04:07:12.322Z,1015.49
2018-09-12T04:08:22.045Z,1015.52
2018-09-12T04:09:32.011Z,1015.47
2018-09-12T04:10:41.472Z,1015.45
2018-09-12T04:11:51.660Z,1015.48
2018-09-12T04:13:00.823Z,1015.43
2018-09-12T04:14:10.253Z,1015.4
2018-09-12T04:15:19.939Z,1015.46
2018-09-12T04:16:29.630Z,1015.42
2018-09-12T04:17:39.390Z,1015.38
2018-09-12T04:18:48.557Z,1015.39
2018-09-12T04:19:58.231Z,1015.42
2018-09-12T04:21:08.170Z,1015.43
2018-09-12T04:22:17.328Z,1015.39
2018-09-12T04:23:26.516Z,1015.4
2018-09-12T04:24:36.240Z,1015.44
2018-09-12T04:25:45.694Z,1015.44
2018-09-12T04:26:54.603Z,1015.39
2018-09-12T04:28:04.284Z,1015.38
2018-09-12T04:29:13.220Z,1015.39
2018-09-12T04:30:22.893Z,1015.4
2018-09-12T04:31:32.624Z,1015.37
2018-09-12T04:32:42.048Z,1015.33
2018-09-12T04:33:51.492Z,1015.34
2018-09-12T04:35:00.702Z,1015.33
2018-09-12T04:36:10.435Z,1015.37
2018-09-12T04:37:19.860Z,1015.36
2018-09-12T04:38:29.826Z,1015.32
2018-09-12T04:39:39.502Z,1015.3
2018-09-12T04:40:48.746Z,1015.32
2018-09-12T04:41:58.173Z,1015.31
2018-09-12T04:43:07.610Z,1015.33
2018-09-12T04:44:16.804Z,1015.32
2018-09-12T04:45:26.242Z,1015.38
2018-09-12T04:46:35.937Z,1015.35
2018-09-12T04:47:45.871Z,1015.35
2018-09-12T04:48:55.559Z,1015.33
2018-09-12T04:50:04.739Z,1015.32
2018-09-12T04:51:14.450Z,1015.32
2018-09-12T04:52:24.132Z,1015.34
2018-09-12T04:53:33.048Z,1015.33
2018-09-12T04:54:41.961Z,1015.33
2018-09-12T04:55:51.663Z,1015.34
2018-09-12T04:57:01.102Z,1015.34
2018-09-12T04:58:10.527Z,1015.35
2018-09-12T04:59:19.720Z,1015.38
2018-09-12T05:00:28.956Z,1015.34
2018-09-12T05:01:38.388Z,1015.37
2018-09-12T05:02:48.253Z,1015.35
2018-09-12T05:03:57.748Z,1015.35
2018-09-12T05:05:07.254Z,1015.35
2018-09-12T05:06:16.952Z,1015.37
2018-09-12T05:07:26.189Z,1015.38
2018-09-12T05:08:35.421Z,1015.38
2018-09-12T05:09:44.848Z,1015.4
2018-09-12T05:10:54.834Z,1015.4
2018-09-12T05:12:04.258Z,1015.41
2018-09-12T05:13:13.198Z,1015.42
2018-09-12T05:14:22.388Z,1015.44
2018-09-12T05:15:31.560Z,1015.41
2018-09-12T05:16:41.052Z,1015.39
2018-09-12T05:17:51.030Z,1015.42
2018-09-12T05:19:00.749Z,1015.44
2018-09-12T05:20:09.910Z,1015.42
2018-09-12T05:21:19.614Z,1015.47
2018-09-12T05:22:29.573Z,1015.46
2018-09-12T05:23:39.047Z,1015.46
2018-09-12T05:24:48.225Z,1015.47
2018-09-12T05:25:57.470Z,1015.47
2018-09-12T05:27:06.681Z,1015.45
2018-09-12T05:28:16.479Z,1015.48
2018-09-12T05:29:26.289Z,1015.5
2018-09-12T05:30:35.714Z,1015.55
2018-09-12T05:31:45.166Z,1015.52
2018-09-12T05:32:54.853Z,1015.5
2018-09-12T05:34:04.595Z,1015.46
2018-09-12T05:35:14.046Z,1015.45
2018-09-12T05:36:23.585Z,1015.47
2018-09-12T05:37:33.152Z,1015.44
2018-09-12T05:38:42.331Z,1015.43
2018-09-12T05:39:52.301Z,1015.44
2018-09-12T05:41:02.004Z,1015.47
2018-09-12T05:42:11.433Z,1015.5
2018-09-12T05:43:21.119Z,1015.49
2018-09-12T05:44:30.840Z,1015.5
2018-09-12T05:45:40.027Z,1015.57
2018-09-12T05:46:49.708Z,1015.56
2018-09-12T05:47:59.166Z,1015.51
2018-09-12T05:49:08.680Z,1015.58
2018-09-12T05:50:18.961Z,1015.56
2018-09-12T05:51:28.506Z,1015.58
2018-09-12T05:52:37.686Z,1015.62
2018-09-12T05:53:47.133Z,1015.63
2018-09-12T05:54:56.821Z,1015.61
2018-09-12T05:56:06.519Z,1015.58
2018-09-12T05:57:16.195Z,1015.61
2018-09-12T05:58:25.890Z,1015.58
2018-09-12T05:59:34.837Z,1015.57
2018-09-12T06:00:44.521Z,1015.58
2018-09-12T06:01:53.840Z,1015.6
2018-09-12T06:03:03.803Z,1015.57
2018-09-12T06:04:13.054Z,1015.58
2018-09-12T06:05:22.502Z,1015.55
2018-09-12T06:06:32.534Z,1015.52
2018-09-12T06:07:42.320Z,1015.49
2018-09-12T06:08:51.244Z,1015.49
2018-09-12T06:10:00.163Z,1015.51
2018-09-12T06:11:09.913Z,1015.49
2018-09-12T06:12:19.095Z,1015.49
2018-09-12T06:13:28.290Z,1015.46
2018-09-12T06:14:37.755Z,1015.44
2018-09-12T06:15:47.219Z,1015.48
2018-09-12T06:16:56.399Z,1015.46
2018-09-12T06:18:05.652Z,1015.45
2018-09-12T06:19:15.110Z,1015.51
2018-09-12T06:20:24.543Z,1015.46
2018-09-12T06:21:33.983Z,1015.52
2018-09-12T06:22:43.429Z,1015.56
2018-09-12T06:23:52.871Z,1015.55
2018-09-12T06:25:02.059Z,1015.55
2018-09-12T06:26:11.524Z,1015.52
2018-09-12T06:27:21.244Z,1015.49
2018-09-12T06:28:30.955Z,1015.5
2018-09-12T06:29:40.751Z,1015.5
2018-09-12T06:30:50.293Z,1015.48
2018-09-12T06:31:59.853Z,1015.49
2018-09-12T06:33:09.557Z,1015.52
2018-09-12T06:34:19.243Z,1015.53
2018-09-12T06:35:28.141Z,1015.56
2018-09-12T06:36:37.802Z,1015.58
2018-09-12T06:37:47.257Z,1015.6
2018-09-12T06:38:57.263Z,1015.6
2018-09-12T06:40:06.721Z,1015.58
2018-09-12T06:41:16.480Z,1015.54
2018-09-12T06:42:26.168Z,1015.56
2018-09-12T06:43:35.615Z,1015.58
2018-09-12T06:44:45.368Z,1015.57
2018-09-12T06:45:54.863Z,1015.58
2018-09-12T06:47:04.334Z,1015.61
2018-09-12T06:48:13.810Z,1015.59
2018-09-12T06:49:23.549Z,1015.58
2018-09-12T06:50:33.251Z,1015.61
2018-09-12T06:51:42.682Z,1015.62
2018-09-12T06:52:52.623Z,1015.59
2018-09-12T06:54:02.390Z,1015.61
2018-09-12T06:55:11.604Z,1015.6
2018-09-12T06:56:21.053Z,1015.64
2018-09-12T06:57:30.232Z,1015.64
2018-09-12T06:58:39.424Z,1015.67
2018-09-12T06:59:48.605Z,1015.67
2018-09-12T07:00:58.366Z,1015.64
2018-09-12T07:02:08.802Z,1015.67
2018-09-12T07:03:17.738Z,1015.65
2018-09-12T07:04:26.692Z,1015.68
2018-09-12T07:05:35.869Z,1015.66
2018-09-12T07:06:45.299Z,1015.65
2018-09-12T07:07:54.211Z,1015.66
2018-09-12T07:09:03.638Z,1015.67
2018-09-12T07:10:13.067Z,1015.62
2018-09-12T07:11:22.594Z,1015.68
2018-09-12T07:12:32.349Z,1015.68
2018-09-12T07:13:42.064Z,1015.64
2018-09-12T07:14:51.755Z,1015.63
2018-09-12T07:16:00.948Z,1015.64
2018-09-12T07:17:10.402Z,1015.68
2018-09-12T07:18:19.066Z,1015.7
2018-09-12T07:19:28.258Z,1015.67
2018-09-12T07:20:37.479Z,1015.72
2018-09-12T07:21:47.426Z,1015.75
2018-09-12T07:22:57.403Z,1015.76
2018-09-12T07:24:06.609Z,1015.76
2018-09-12T07:25:15.853Z,1015.79
2018-09-12T07:26:25.546Z,1015.77
2018-09-12T07:27:35.311Z,1015.79
2018-09-12T07:28:45.393Z,1015.76
2018-09-12T07:29:54.861Z,1015.76
2018-09-12T07:31:04.548Z,1015.76
2018-09-12T07:32:13.477Z,1015.77
2018-09-12T07:33:22.958Z,1015.82
2018-09-12T07:34:32.897Z,1015.78
2018-09-12T07:35:42.609Z,1015.8
2018-09-12T07:36:52.320Z,1015.83
2018-09-12T07:38:01.258Z,1015.85
2018-09-12T07:39:10.421Z,1015.86
2018-09-12T07:40:19.598Z,1015.87
2018-09-12T07:41:29.060Z,1015.88
2018-09-12T07:42:38.627Z,1015.88
2018-09-12T07:43:48.054Z,1015.9
2018-09-12T07:44:57.235Z,1015.88
2018-09-12T07:46:06.171Z,1015.88
2018-09-12T07:47:16.109Z,1015.87
2018-09-12T07:48:25.536Z,1015.91
2018-09-12T07:49:35.215Z,1015.87
2018-09-12T07:50:44.902Z,1015.88
2018-09-12T07:51:54.086Z,1015.93
2018-09-12T07:53:03.534Z,1015.92
2018-09-12T07:54:13.009Z,1015.93
2018-09-12T07:55:23.003Z,1015.93
2018-09-12T07:56:32.804Z,1015.96
2018-09-12T07:57:42.498Z,1015.94
2018-09-12T07:58:51.923Z,1015.96
2018-09-12T08:00:01.186Z,1015.95
2018-09-12T08:01:11.063Z,1015.98
2018-09-12T08:02:21.050Z,1015.94
2018-09-12T08:03:31.030Z,1015.93
2018-09-12T08:04:40.756Z,1015.96
2018-09-12T08:05:50.533Z,1015.95
2018-09-12T08:06:59.958Z,1015.92
2018-09-12T08:08:09.458Z,1015.93
2018-09-12T08:09:19.643Z,1015.93
2018-09-12T08:10:29.154Z,1015.97
2018-09-12T08:11:38.340Z,1015.93
2018-09-12T08:12:47.844Z,1015.89
2018-09-12T08:13:57.352Z,1015.88
2018-09-12T08:15:06.292Z,1015.86
2018-09-12T08:16:15.761Z,1015.85
2018-09-12T08:17:25.243Z,1015.79
2018-09-12T08:18:34.461Z,1015.78
2018-09-12T08:19:43.673Z,1015.8
2018-09-12T08:20:53.178Z,1015.78
2018-09-12T08:22:02.947Z,1015.84
2018-09-12T08:23:12.656Z,1015.81
2018-09-12T08:24:21.857Z,1015.83
2018-09-12T08:25:31.547Z,1015.87
2018-09-12T08:26:41.404Z,1015.84
2018-09-12T08:27:51.344Z,1015.84
2018-09-12T08:29:01.321Z,1015.84
2018-09-12T08:30:11.305Z,1015.84
2018-09-12T08:31:21.300Z,1015.79
2018-09-12T08:32:31.061Z,1015.8
2018-09-12T08:33:40.518Z,1015.8
2018-09-12T08:34:50.246Z,1015.82
2018-09-12T08:35:59.765Z,1015.83
2018-09-12T08:37:09.503Z,1015.87
2018-09-12T08:38:19.211Z,1015.83
2018-09-12T08:39:28.147Z,1015.84
2018-09-12T08:40:37.336Z,1015.85
2018-09-12T08:41:46.765Z,1015.88
2018-09-12T08:42:56.782Z,1015.89
2018-09-12T08:44:06.006Z,1015.9
2018-09-12T08:45:15.556Z,1015.88
2018-09-12T08:46:25.539Z,1015.88
2018-09-12T08:47:35.244Z,1015.91
2018-09-12T08:48:45.145Z,1015.91
2018-09-12T08:49:54.836Z,1015.94
2018-09-12T08:51:04.284Z,1015.94
2018-09-12T08:52:14.243Z,1015.93
2018-09-12T08:53:23.662Z,1015.93
2018-09-12T08:54:33.086Z,1015.91
2018-09-12T08:55:42.521Z,1015.92
2018-09-12T08:56:52.068Z,1015.92
2018-09-12T08:58:01.546Z,1015.92
2018-09-12T08:59:10.977Z,1015.92
2018-09-12T09:00:20.468Z,1015.91
2018-09-12T09:01:29.862Z,1015.93
2018-09-12T09:02:40.257Z,1015.92
2018-09-12T09:03:49.737Z,1015.92
2018-09-12T09:04:59.602Z,1015.93
2018-09-12T09:06:09.036Z,1015.96
2018-09-12T09:07:18.976Z,1015.96
2018-09-12T09:08:28.407Z,1015.96
2018-09-12T09:09:37.595Z,1015.96
2018-09-12T09:10:47.295Z,1015.98
2018-09-12T09:11:57.255Z,1015.95
2018-09-12T09:13:06.493Z,1015.96
2018-09-12T09:14:15.671Z,1015.92
2018-09-12T09:15:24.609Z,1015.99
2018-09-12T09:16:34.293Z,1016
2018-09-12T09:17:44.001Z,1015.99
2018-09-12T09:18:52.923Z,1016.08
2018-09-12T09:20:02.149Z,1016.06
2018-09-12T09:21:11.059Z,1016.03
2018-09-12T09:22:20.741Z,1016.02
2018-09-12T09:23:30.516Z,1016.02
2018-09-12T09:24:40.033Z,1016.04
2018-09-12T09:25:49.714Z,1016.04
2018-09-12T09:26:59.659Z,1016.04
2018-09-12T09:28:09.109Z,1016.04
2018-09-12T09:29:19.135Z,1015.94
2018-09-12T09:30:28.845Z,1015.95
2018-09-12T09:31:38.320Z,1015.98
2018-09-12T09:32:48.534Z,1015.98
2018-09-12T09:33:58.090Z,1015.98
2018-09-12T09:35:07.364Z,1015.9
2018-09-12T09:36:17.472Z,1015.97
2018-09-12T09:37:26.677Z,1015.97
2018-09-12T09:38:35.902Z,1015.91
2018-09-12T09:39:45.393Z,1015.94
2018-09-12T09:40:54.863Z,1015.99
2018-09-12T09:42:04.716Z,1015.98
2018-09-12T09:43:14.443Z,1015.99
2018-09-12T09:44:23.687Z,1016
2018-09-12T09:45:33.458Z,1015.97
2018-09-12T09:46:43.207Z,1016.05
2018-09-12T09:47:52.862Z,1016.02
2018-09-12T09:49:03.030Z,1015.99
2018-09-12T09:50:12.247Z,1016.04
2018-09-12T09:51:21.731Z,1015.98
2018-09-12T09:52:31.212Z,1016.06
2018-09-12T09:53:40.420Z,1016.09
2018-09-12T09:54:50.008Z,1016.01
2018-09-12T09:55:59.512Z,1016.03
2018-09-12T09:57:09.495Z,1015.99
2018-09-12T09:58:19.074Z,1016.05
2018-09-12T09:59:28.825Z,1016.07
2018-09-12T10:00:38.562Z,1016.1
2018-09-12T10:01:48.312Z,1016.05
2018-09-12T10:02:57.793Z,1016.05
2018-09-12T10:04:06.501Z,1016.03
2018-09-12T10:05:15.946Z,1016.05
2018-09-12T10:06:25.421Z,1016.03
2018-09-12T10:07:35.167Z,1016.02
2018-09-12T10:08:44.324Z,1016.06
2018-09-12T10:09:52.977Z,1016.01
2018-09-12T10:11:02.146Z,1016.04
2018-09-12T10:12:11.320Z,1016.05
2018-09-12T10:13:21.004Z,1016.08
2018-09-12T10:14:30.687Z,1016.05
2018-09-12T10:15:40.384Z,1016.06
2018-09-12T10:16:49.650Z,1016.07
2018-09-12T10:17:59.090Z,1016.06
2018-09-12T10:19:09.053Z,1016.03
2018-09-12T10:20:18.493Z,1016.04
2018-09-12T10:21:27.418Z,1016
2018-09-12T10:22:37.206Z,1016.02
2018-09-12T10:23:46.646Z,1016.02
2018-09-12T10:24:55.815Z,1016.03
2018-09-12T10:26:05.542Z,1016.04
2018-09-12T10:27:15.270Z,1016.06
2018-09-12T10:28:24.189Z,1016
2018-09-12T10:29:33.613Z,1015.99
2018-09-12T10:30:42.779Z,1015.93
2018-09-12T10:31:51.943Z,1015.96
2018-09-12T10:33:01.354Z,1015.93
2018-09-12T10:34:10.800Z,1015.96
2018-09-12T10:35:19.963Z,1015.93
2018-09-12T10:36:29.383Z,1015.95
2018-09-12T10:37:39.152Z,1015.94
2018-09-12T10:38:48.578Z,1015.89
2018-09-12T10:39:58.355Z,1015.95
2018-09-12T10:41:08.126Z,1015.93
2018-09-12T10:42:17.894Z,1015.99
2018-09-12T10:43:27.337Z,1016.01
2018-09-12T10:44:37.070Z,1015.92
2018-09-12T10:45:46.251Z,1016
2018-09-12T10:46:55.690Z,1016.04
2018-09-12T10:48:05.630Z,1016.01
2018-09-12T10:49:15.062Z,1016
2018-09-12T10:50:24.760Z,1015.97
2018-09-12T10:51:33.975Z,1015.98
2018-09-12T10:52:43.396Z,1015.96
2018-09-12T10:53:52.584Z,1015.95
2018-09-12T10:55:01.760Z,1015.91
2018-09-12T10:56:11.193Z,1015.93
2018-09-12T10:57:20.736Z,1015.92
2018-09-12T10:58:30.432Z,1015.87
2018-09-12T10:59:39.852Z,1015.86
2018-09-12T11:00:49.009Z,1015.82
2018-09-12T11:01:58.439Z,1015.91
2018-09-12T11:03:07.859Z,1015.92
2018-09-12T11:04:16.808Z,1015.88
2018-09-12T11:05:26.783Z,1015.86
2018-09-12T11:06:35.964Z,1015.82
2018-09-12T11:07:45.138Z,1015.87
2018-09-12T11:08:54.361Z,1015.91
2018-09-12T11:10:03.785Z,1015.92
2018-09-12T11:11:13.206Z,1015.95
2018-09-12T11:12:22.882Z,1015.96
2018-09-12T11:13:32.307Z,1015.93
2018-09-12T11:14:41.483Z,1015.93
2018-09-12T11:15:51.181Z,1015.93
2018-09-12T11:17:00.394Z,1015.84
2018-09-12T11:18:09.599Z,1015.81
2018-09-12T11:19:19.541Z,1015.78
2018-09-12T11:20:28.715Z,1015.87
2018-09-12T11:21:38.128Z,1015.84
2018-09-12T11:22:47.301Z,1015.83
2018-09-12T11:23:56.550Z,1015.84
2018-09-12T11:25:06.265Z,1015.81
2018-09-12T11:26:15.442Z,1015.78
2018-09-12T11:27:24.616Z,1015.79
2018-09-12T11:28:33.779Z,1015.8
2018-09-12T11:29:43.277Z,1015.81
2018-09-12T11:30:53.226Z,1015.79
2018-09-12T11:32:02.674Z,1015.83
2018-09-12T11:33:11.879Z,1015.83
2018-09-12T11:34:21.621Z,1015.72
2018-09-12T11:35:30.800Z,1015.8
2018-09-12T11:36:41.187Z,1015.78
2018-09-12T11:37:50.351Z,1015.73
2018-09-12T11:38:59.786Z,1015.75
2018-09-12T11:40:08.761Z,1015.71
2018-09-12T11:41:19.159Z,1015.74
2018-09-12T11:42:28.573Z,1015.7
2018-09-12T11:43:37.742Z,1015.74
2018-09-12T11:44:47.671Z,1015.69
2018-09-12T11:45:57.114Z,1015.69
2018-09-12T11:47:06.850Z,1015.73
2018-09-12T11:48:16.136Z,1015.67
2018-09-12T11:49:25.663Z,1015.66
2018-09-12T11:50:34.827Z,1015.73
2018-09-12T11:51:44.071Z,1015.74
2018-09-12T11:52:54.011Z,1015.74
2018-09-12T11:54:03.442Z,1015.71
2018-09-12T11:55:12.844Z,1015.75
2018-09-12T11:56:22.333Z,1015.73
2018-09-12T11:57:31.807Z,1015.72
2018-09-12T11:58:41.483Z,1015.67
2018-09-12T11:59:51.192Z,1015.71
2018-09-12T12:01:00.385Z,1015.74
2018-09-12T12:02:10.153Z,1015.67
2018-09-12T12:03:20.649Z,1015.65
2018-09-12T12:04:30.102Z,1015.67
2018-09-12T12:05:39.538Z,1015.66
2018-09-12T12:06:48.987Z,1015.66
2018-09-12T12:07:58.435Z,1015.61
2018-09-12T12:09:07.346Z,1015.66
2018-09-12T12:10:16.543Z,1015.7
2018-09-12T12:11:25.988Z,1015.7
2018-09-12T12:12:35.266Z,1015.68
2018-09-12T12:13:44.702Z,1015.72
2018-09-12T12:14:53.919Z,1015.74
2018-09-12T12:16:03.124Z,1015.73
2018-09-12T12:17:12.304Z,1015.69
2018-09-12T12:18:22.252Z,1015.71
2018-09-12T12:19:31.936Z,1015.68
2018-09-12T12:20:40.851Z,1015.62
2018-09-12T12:21:50.805Z,1015.65
2018-09-12T12:23:00.004Z,1015.66
2018-09-12T12:24:09.889Z,1015.7
2018-09-12T12:25:19.324Z,1015.67
2018-09-12T12:26:28.219Z,1015.7
2018-09-12T12:27:37.913Z,1015.68
2018-09-12T12:28:47.402Z,1015.68
2018-09-12T12:29:56.828Z,1015.65
2018-09-12T12:31:06.238Z,1015.61
2018-09-12T12:32:15.682Z,1015.63
2018-09-12T12:33:24.581Z,1015.64
2018-09-12T12:34:33.771Z,1015.61
2018-09-12T12:35:43.248Z,1015.55
2018-09-12T12:36:52.929Z,1015.52
2018-09-12T12:38:02.648Z,1015.5
2018-09-12T12:39:12.081Z,1015.5
2018-09-12T12:40:21.319Z,1015.5
2018-09-12T12:41:30.755Z,1015.42
2018-09-12T12:42:40.453Z,1015.52
2018-09-12T12:43:50.160Z,1015.46
2018-09-12T12:44:59.310Z,1015.49
2018-09-12T12:46:08.726Z,1015.47
2018-09-12T12:47:18.735Z,1015.43
2018-09-12T12:48:28.154Z,1015.4
2018-09-12T12:49:37.323Z,1015.4
2018-09-12T12:50:46.478Z,1015.36
2018-09-12T12:51:55.905Z,1015.41
2018-09-12T12:53:05.846Z,1015.41
2018-09-12T12:54:15.529Z,1015.35
2018-09-12T12:55:24.983Z,1015.38
2018-09-12T12:56:34.664Z,1015.37
2018-09-12T12:57:43.860Z,1015.39
2018-09-12T12:58:53.082Z,1015.38
2018-09-12T13:00:02.756Z,1015.35
2018-09-12T13:01:12.706Z,1015.35
2018-09-12T13:02:22.156Z,1015.37
2018-09-12T13:03:31.583Z,1015.32
2018-09-12T13:04:40.808Z,1015.35
2018-09-12T13:05:50.517Z,1015.32
2018-09-12T13:07:00.054Z,1015.25
2018-09-12T13:08:09.813Z,1015.2
2018-09-12T13:09:19.552Z,1015.26
2018-09-12T13:10:29.402Z,1015.24
2018-09-12T13:11:38.825Z,1015.26
2018-09-12T13:12:48.312Z,1015.26
2018-09-12T13:13:57.570Z,1015.22
2018-09-12T13:15:07.130Z,1015.27
2018-09-12T13:16:17.140Z,1015.33
2018-09-12T13:17:26.683Z,1015.32
2018-09-12T13:18:36.454Z,1015.23
2018-09-12T13:19:46.240Z,1015.21
2018-09-12T13:20:55.536Z,1015.21
2018-09-12T13:22:05.292Z,1015.13
2018-09-12T13:23:14.528Z,1015.17
2018-09-12T13:24:24.349Z,1015.12
2018-09-12T13:25:34.090Z,1015.18
2018-09-12T13:26:44.088Z,1015.22
2018-09-12T13:27:53.731Z,1015.15
2018-09-12T13:29:03.633Z,1015.17
2018-09-12T13:30:12.655Z,1015.17
2018-09-12T13:31:22.136Z,1015.15
2018-09-12T13:32:31.137Z,1015.12
2018-09-12T13:33:40.556Z,1015.13
2018-09-12T13:34:49.202Z,1015.14
2018-09-12T13:35:59.154Z,1015.12
2018-09-12T13:37:08.612Z,1015.17
2018-09-12T13:38:18.330Z,1015.15
2018-09-12T13:39:27.245Z,1015.12
2018-09-12T13:40:36.968Z,1015.22
2018-09-12T13:41:46.679Z,1015.21
2018-09-12T13:42:55.661Z,1015.17
2018-09-12T13:44:05.413Z,1015.13
2018-09-12T13:45:14.629Z,1015.16
2018-09-12T13:46:23.861Z,1015.14
2018-09-12T13:47:33.713Z,1015.13
2018-09-12T13:48:43.192Z,1015.15
2018-09-12T13:49:52.213Z,1015.07
2018-09-12T13:51:01.747Z,1015.13
2018-09-12T13:52:11.219Z,1015.09
2018-09-12T13:53:20.681Z,1015.09
2018-09-12T13:54:30.402Z,1015.1
2018-09-12T13:55:40.468Z,1015.1
2018-09-12T13:56:49.976Z,1015.11
2018-09-12T13:57:59.539Z,1015.07
2018-09-12T13:59:08.783Z,1015.1
2018-09-12T14:00:18.256Z,1015.1
2018-09-12T14:01:27.968Z,1015.07
2018-09-12T14:02:38.484Z,1015.14
2018-09-12T14:03:48.465Z,1015.08
2018-09-12T14:04:58.198Z,1015.1